createdAt,value
2019-05-02T00:01:26.409Z,12.90
2019-05-02T00:03:53.956Z,13.00
2019-05-02T00:06:21.569Z,13.00
2019-05-02T00:08:49.120Z,12.90
2019-05-02T00:11:16.819Z,12.90
2019-05-02T00:13:44.379Z,12.90
2019-05-02T00:16:14.095Z,12.90
2019-05-02T00:18:41.187Z,13.00
2019-05-02T00:21:09.092Z,13.00
2019-05-02T00:23:36.640Z,13.10
2019-05-02T00:26:04.176Z,13.00
2019-05-02T00:28:32.057Z,13.10
2019-05-02T00:30:59.592Z,13.00
2019-05-02T00:33:29.342Z,13.00
2019-05-02T00:35:56.405Z,13.10
2019-05-02T00:38:23.936Z,13.10
2019-05-02T00:40:51.528Z,13.00
2019-05-02T00:43:19.059Z,13.00
2019-05-02T00:45:46.615Z,13.00
2019-05-02T00:48:19.250Z,12.90
2019-05-02T00:50:50.631Z,12.90
2019-05-02T00:53:17.041Z,13.00
2019-05-02T00:55:44.666Z,12.70
2019-05-02T00:58:12.199Z,12.80
2019-05-02T01:00:48.584Z,12.80
2019-05-02T01:03:17.957Z,12.90
2019-05-02T01:05:45.701Z,13.00
2019-05-02T01:08:13.233Z,12.80
2019-05-02T01:10:40.786Z,12.90
2019-05-02T01:13:08.429Z,12.80
2019-05-02T01:15:39.183Z,12.80
2019-05-02T01:18:05.994Z,12.80
2019-05-02T01:20:34.508Z,12.80
2019-05-02T01:23:02.040Z,12.50
2019-05-02T01:25:29.588Z,12.50
2019-05-02T01:28:12.658Z,12.50
2019-05-02T01:30:42.300Z,12.30
2019-05-02T01:33:21.780Z,12.10
2019-05-02T01:36:09.136Z,12.20
2019-05-02T01:38:38.315Z,12.20
2019-05-02T01:41:05.995Z,12.30
2019-05-02T01:43:33.507Z,12.30
2019-05-02T01:46:01.056Z,12.30
2019-05-02T01:48:28.588Z,12.40
2019-05-02T01:50:56.173Z,12.50
2019-05-02T01:53:24.036Z,12.50
2019-05-02T01:55:51.875Z,12.50
2019-05-02T01:58:22.833Z,12.50
2019-05-02T02:00:50.123Z,12.50
2019-05-02T02:03:17.928Z,12.50
2019-05-02T02:05:45.732Z,12.50
2019-05-02T02:08:13.268Z,12.50
2019-05-02T02:10:43.745Z,12.60
2019-05-02T02:13:10.070Z,12.50
2019-05-02T02:15:37.613Z,12.50
2019-05-02T02:18:05.224Z,12.50
2019-05-02T02:20:34.413Z,12.50
2019-05-02T02:23:15.588Z,12.40
2019-05-02T02:25:44.777Z,12.40
2019-05-02T02:28:12.312Z,12.20
2019-05-02T02:30:39.897Z,12.10
2019-05-02T02:33:09.455Z,12.20
2019-05-02T02:35:36.704Z,12.20
2019-05-02T02:38:04.231Z,12.30
2019-05-02T02:40:33.598Z,12.20
2019-05-02T02:43:13.067Z,12.20
2019-05-02T02:45:43.380Z,12.20
2019-05-02T02:48:10.913Z,12.20
2019-05-02T02:50:43.162Z,12.30
2019-05-02T02:53:07.735Z,12.30
2019-05-02T02:55:35.281Z,12.20
2019-05-02T02:58:04.669Z,12.20
2019-05-02T03:00:32.085Z,12.10
2019-05-02T03:02:59.617Z,12.10
2019-05-02T03:05:27.808Z,12.10
2019-05-02T03:07:59.659Z,12.10
2019-05-02T03:10:24.803Z,12.10
2019-05-02T03:13:15.041Z,12.00
2019-05-02T03:15:41.468Z,12.00
2019-05-02T03:18:09.084Z,12.10
2019-05-02T03:20:40.594Z,12.10
2019-05-02T03:23:05.897Z,11.90
2019-05-02T03:25:49.689Z,11.90
2019-05-02T03:28:02.706Z,11.90
2019-05-02T03:30:36.204Z,11.80
2019-05-02T03:33:09.780Z,11.90
2019-05-02T03:35:41.804Z,11.90
2019-05-02T03:37:58.189Z,11.90
2019-05-02T03:40:32.312Z,11.90
2019-05-02T03:42:55.000Z,12.00
2019-05-02T03:45:22.533Z,11.80
2019-05-02T03:47:50.083Z,11.70
2019-05-02T03:50:31.652Z,11.80
2019-05-02T03:52:47.353Z,11.70
2019-05-02T03:55:14.895Z,11.80
2019-05-02T03:57:42.539Z,11.70
2019-05-02T04:00:13.588Z,11.70
2019-05-02T04:02:39.640Z,11.80
2019-05-02T04:05:07.173Z,11.80
2019-05-02T04:07:40.531Z,11.80
2019-05-02T04:10:05.046Z,11.70
2019-05-02T04:12:33.364Z,11.70
2019-05-02T04:15:00.974Z,11.70
2019-05-02T04:17:34.877Z,11.70
2019-05-02T04:19:57.781Z,11.70
2019-05-02T04:22:25.993Z,11.70
2019-05-02T04:24:54.697Z,11.60
2019-05-02T04:27:27.944Z,11.60
2019-05-02T04:29:52.978Z,11.50
2019-05-02T04:32:20.837Z,11.60
2019-05-02T04:34:55.654Z,11.60
2019-05-02T04:37:17.646Z,11.70
2019-05-02T04:39:45.181Z,11.70
2019-05-02T04:42:18.618Z,11.70
2019-05-02T04:45:07.500Z,11.70
2019-05-02T04:47:17.553Z,11.70
2019-05-02T04:49:40.765Z,11.70
2019-05-02T04:52:12.242Z,11.70
2019-05-02T04:54:38.871Z,11.80
2019-05-02T04:57:08.418Z,11.90
2019-05-02T04:59:39.216Z,11.90
2019-05-02T05:02:08.647Z,11.80
2019-05-02T05:04:41.948Z,11.80
2019-05-02T05:07:04.129Z,11.80
2019-05-02T05:09:31.666Z,11.80
2019-05-02T05:12:02.500Z,11.80
2019-05-02T05:14:31.413Z,11.80
2019-05-02T05:16:58.113Z,11.80
2019-05-02T05:19:28.650Z,11.70
2019-05-02T05:21:59.175Z,11.50
2019-05-02T05:24:32.741Z,11.50
2019-05-02T05:27:00.125Z,11.50
2019-05-02T05:29:29.097Z,11.40
2019-05-02T05:32:05.414Z,11.50
2019-05-02T05:34:28.482Z,11.60
2019-05-02T05:36:55.369Z,11.60
2019-05-02T05:39:22.910Z,11.60
2019-05-02T05:41:52.369Z,11.70
2019-05-02T05:44:23.425Z,11.70
2019-05-02T05:46:49.525Z,11.70
2019-05-02T05:49:20.326Z,11.80
2019-05-02T05:51:47.508Z,11.80
2019-05-02T05:54:17.725Z,11.90
2019-05-02T05:56:44.901Z,11.70
2019-05-02T05:59:12.732Z,11.90
2019-05-02T06:01:40.277Z,12.00
2019-05-02T06:04:08.317Z,12.00
2019-05-02T06:06:37.647Z,12.10
2019-05-02T06:09:06.584Z,12.20
2019-05-02T06:11:34.103Z,12.20
2019-05-02T06:14:01.649Z,12.30
2019-05-02T06:16:29.438Z,12.40
2019-05-02T06:18:57.036Z,12.50
2019-05-02T06:21:24.869Z,12.50
2019-05-02T06:23:52.420Z,12.60
2019-05-02T06:26:19.952Z,12.60
2019-05-02T06:28:47.757Z,12.70
2019-05-02T06:31:17.108Z,12.80
2019-05-02T06:33:44.642Z,12.80
2019-05-02T06:36:12.179Z,12.80
2019-05-02T06:38:39.729Z,12.90
2019-05-02T06:41:07.256Z,12.90
2019-05-02T06:43:34.803Z,12.80
2019-05-02T06:46:15.238Z,12.90
2019-05-02T06:48:31.613Z,13.00
2019-05-02T06:50:59.140Z,13.10
2019-05-02T06:53:26.685Z,13.00
2019-05-02T06:55:54.220Z,13.10
2019-05-02T06:58:21.768Z,13.30
2019-05-02T07:00:57.574Z,13.40
2019-05-02T07:03:18.573Z,13.50
2019-05-02T07:05:48.907Z,13.60
2019-05-02T07:08:15.716Z,13.60
2019-05-02T07:10:44.939Z,13.70
2019-05-02T07:13:15.037Z,13.50
2019-05-02T07:16:00.325Z,13.70
2019-05-02T07:18:41.970Z,13.90
2019-05-02T07:21:12.116Z,14.00
2019-05-02T07:23:37.269Z,14.00
2019-05-02T07:26:04.973Z,14.20
2019-05-02T07:28:32.541Z,14.40
2019-05-02T07:31:00.181Z,14.50
2019-05-02T07:33:32.405Z,14.50
2019-05-02T07:36:00.078Z,14.60
2019-05-02T07:38:27.588Z,14.80
2019-05-02T07:40:55.248Z,15.00
2019-05-02T07:43:22.784Z,15.30
2019-05-02T07:45:50.666Z,15.40
2019-05-02T07:48:19.079Z,15.70
2019-05-02T07:50:48.101Z,15.70
2019-05-02T07:53:16.026Z,15.90
2019-05-02T07:55:43.589Z,16.10
2019-05-02T07:58:11.135Z,16.20
2019-05-02T08:00:38.669Z,16.50
2019-05-02T08:03:06.228Z,16.80
2019-05-02T08:05:33.781Z,17.00
2019-05-02T08:08:01.317Z,17.20
2019-05-02T08:10:28.864Z,17.30
2019-05-02T08:12:56.488Z,17.40
2019-05-02T08:15:24.650Z,17.60
2019-05-02T08:17:53.883Z,17.80
2019-05-02T08:20:21.836Z,18.00
2019-05-02T08:22:50.416Z,18.10
2019-05-02T08:25:18.203Z,18.20
2019-05-02T08:27:53.240Z,18.40
2019-05-02T08:30:22.416Z,18.80
2019-05-02T08:32:50.165Z,18.90
2019-05-02T08:35:17.713Z,19.00
2019-05-02T08:37:45.490Z,19.00
2019-05-02T08:40:13.783Z,19.10
2019-05-02T08:42:41.345Z,19.20
2019-05-02T08:45:08.880Z,19.10
2019-05-02T08:47:36.453Z,19.00
2019-05-02T08:50:07.618Z,19.00
2019-05-02T08:52:36.867Z,19.20
2019-05-02T08:55:09.846Z,19.50
2019-05-02T08:57:36.211Z,19.60
2019-05-02T09:00:04.981Z,19.50
2019-05-02T09:02:41.118Z,19.60
2019-05-02T09:05:04.603Z,19.70
2019-05-02T09:07:36.981Z,19.70
2019-05-02T09:10:05.678Z,19.70
2019-05-02T09:12:31.993Z,20.00
2019-05-02T09:14:59.641Z,20.30
2019-05-02T09:17:37.769Z,20.50
2019-05-02T09:20:02.402Z,20.60
2019-05-02T09:22:25.939Z,20.40
2019-05-02T09:24:53.468Z,20.40
2019-05-02T09:27:22.430Z,20.50
2019-05-02T09:29:51.874Z,20.70
2019-05-02T09:32:22.804Z,20.60
2019-05-02T09:34:48.826Z,20.50
2019-05-02T09:37:16.373Z,20.50
2019-05-02T09:39:44.156Z,20.10
2019-05-02T09:42:15.162Z,19.80
2019-05-02T09:44:42.556Z,19.60
2019-05-02T09:47:12.852Z,19.90
2019-05-02T09:49:43.550Z,20.30
2019-05-02T09:52:11.784Z,20.60
2019-05-02T09:54:42.501Z,20.90
2019-05-02T09:57:08.640Z,20.90
2019-05-02T09:59:36.223Z,20.60
2019-05-02T10:02:04.741Z,20.60
2019-05-02T10:04:32.619Z,20.50
2019-05-02T10:07:02.430Z,20.80
2019-05-02T10:09:29.887Z,20.80
2019-05-02T10:11:57.430Z,21.00
2019-05-02T10:14:24.973Z,21.40
2019-05-02T10:16:53.098Z,21.60
2019-05-02T10:19:25.277Z,21.70
2019-05-02T10:21:52.527Z,21.80
2019-05-02T10:24:19.388Z,21.60
2019-05-02T10:26:47.245Z,21.90
2019-05-02T10:29:14.826Z,22.10
2019-05-02T10:31:42.642Z,22.10
2019-05-02T10:34:16.156Z,22.00
2019-05-02T10:36:43.259Z,21.70
2019-05-02T10:39:09.169Z,21.70
2019-05-02T10:41:39.523Z,21.90
2019-05-02T10:44:06.264Z,21.90
2019-05-02T10:46:38.520Z,21.70
2019-05-02T10:49:07.696Z,21.50
2019-05-02T10:51:35.264Z,21.40
2019-05-02T10:54:03.961Z,21.30
2019-05-02T10:56:32.450Z,21.50
2019-05-02T10:59:02.131Z,21.60
2019-05-02T11:01:32.353Z,21.40
2019-05-02T11:04:02.159Z,21.40
2019-05-02T11:06:29.800Z,21.30
2019-05-02T11:08:57.337Z,21.20
2019-05-02T11:11:24.945Z,21.00
2019-05-02T11:14:00.880Z,21.10
2019-05-02T11:16:32.171Z,21.30
2019-05-02T11:19:04.496Z,21.50
2019-05-02T11:21:32.392Z,21.70
2019-05-02T11:24:02.194Z,21.60
2019-05-02T11:26:29.668Z,21.40
2019-05-02T11:28:57.229Z,21.20
2019-05-02T11:31:24.755Z,20.90
2019-05-02T11:33:52.844Z,20.80
2019-05-02T11:36:22.336Z,20.60
2019-05-02T11:38:59.646Z,20.40
2019-05-02T11:41:19.729Z,20.30
2019-05-02T11:43:47.331Z,20.10
2019-05-02T11:46:14.872Z,20.10
2019-05-02T11:48:55.073Z,19.90
2019-05-02T11:51:16.100Z,20.10
2019-05-02T11:53:42.035Z,20.50
2019-05-02T11:56:11.641Z,20.90
2019-05-02T11:58:41.020Z,21.00
2019-05-02T12:01:08.416Z,21.10
2019-05-02T12:03:37.579Z,21.20
2019-05-02T12:06:06.701Z,21.10
2019-05-02T12:08:34.396Z,21.00
2019-05-02T12:11:03.736Z,20.80
2019-05-02T12:13:32.304Z,21.00
2019-05-02T12:15:59.941Z,21.20
2019-05-02T12:18:27.496Z,21.10
2019-05-02T12:20:55.122Z,21.20
2019-05-02T12:23:22.790Z,21.20
2019-05-02T12:25:51.980Z,21.10
2019-05-02T12:28:19.752Z,21.00
2019-05-02T12:30:47.282Z,20.90
2019-05-02T12:33:15.103Z,21.00
2019-05-02T12:35:43.222Z,21.20
2019-05-02T12:38:12.257Z,21.40
2019-05-02T12:40:42.038Z,21.30
2019-05-02T12:43:09.300Z,21.20
2019-05-02T12:45:36.815Z,21.20
2019-05-02T12:48:04.365Z,21.30
2019-05-02T12:50:32.237Z,21.50
2019-05-02T12:52:59.812Z,21.60
2019-05-02T12:55:27.692Z,21.80
2019-05-02T12:57:55.233Z,21.80
2019-05-02T13:00:22.787Z,21.70
2019-05-02T13:03:03.673Z,21.30
2019-05-02T13:05:31.782Z,21.00
2019-05-02T13:07:59.456Z,20.70
2019-05-02T13:10:32.723Z,20.60
2019-05-02T13:13:00.500Z,20.80
2019-05-02T13:15:28.364Z,20.80
2019-05-02T13:17:55.932Z,20.70
2019-05-02T13:20:24.895Z,20.50
2019-05-02T13:23:00.787Z,20.60
2019-05-02T13:25:32.927Z,20.80
2019-05-02T13:27:57.238Z,21.00
2019-05-02T13:30:26.705Z,20.90
2019-05-02T13:32:57.893Z,20.90
2019-05-02T13:35:26.802Z,21.10
2019-05-02T13:37:55.965Z,21.10
2019-05-02T13:40:25.149Z,21.30
2019-05-02T13:42:52.688Z,21.30
2019-05-02T13:45:24.981Z,21.30
2019-05-02T13:47:52.516Z,21.20
2019-05-02T13:50:22.183Z,21.00
2019-05-02T13:52:53.133Z,21.30
2019-05-02T13:55:20.240Z,21.50
2019-05-02T13:57:47.776Z,21.70
2019-05-02T14:00:16.984Z,21.60
2019-05-02T14:02:44.892Z,21.50
2019-05-02T14:05:12.956Z,21.60
2019-05-02T14:07:42.922Z,21.60
2019-05-02T14:10:34.115Z,21.50
2019-05-02T14:12:57.993Z,21.60
2019-05-02T14:15:27.180Z,21.30
2019-05-02T14:17:54.739Z,21.20
2019-05-02T14:20:22.627Z,21.10
2019-05-02T14:22:52.527Z,21.00
2019-05-02T14:25:19.812Z,21.00
2019-05-02T14:27:53.756Z,20.80
2019-05-02T14:30:17.390Z,20.80
2019-05-02T14:32:44.920Z,20.70
2019-05-02T14:35:14.116Z,20.60
2019-05-02T14:37:42.098Z,20.50
2019-05-02T14:40:11.785Z,20.60
2019-05-02T14:42:39.421Z,20.50
2019-05-02T14:45:19.947Z,20.50
2019-05-02T14:47:36.703Z,20.30
2019-05-02T14:50:05.890Z,20.20
2019-05-02T14:52:37.283Z,20.10
2019-05-02T14:55:04.880Z,20.20
2019-05-02T14:57:32.672Z,19.90
2019-05-02T15:00:02.832Z,19.60
2019-05-02T15:02:49.147Z,19.30
2019-05-02T15:05:19.273Z,19.10
2019-05-02T15:07:44.270Z,18.80
2019-05-02T15:10:12.657Z,18.50
2019-05-02T15:12:41.916Z,18.40
2019-05-02T15:15:12.087Z,18.30
2019-05-02T15:17:39.192Z,18.20
2019-05-02T15:20:08.375Z,18.00
2019-05-02T15:22:37.587Z,17.70
2019-05-02T15:25:07.925Z,17.50
2019-05-02T15:27:41.918Z,17.40
2019-05-02T15:30:07.262Z,17.30
2019-05-02T15:32:37.265Z,17.20
2019-05-02T15:35:24.921Z,17.20
2019-05-02T15:37:49.419Z,17.20
2019-05-02T15:40:47.386Z,17.00
2019-05-02T15:42:49.208Z,16.90
2019-05-02T15:45:16.932Z,16.70
2019-05-02T15:47:45.407Z,16.60
2019-05-02T15:50:14.685Z,16.70
2019-05-02T15:52:44.341Z,16.60
2019-05-02T15:55:11.879Z,16.40
2019-05-02T15:57:43.673Z,16.40
2019-05-02T16:00:10.322Z,16.40
2019-05-02T16:02:37.857Z,16.20
2019-05-02T16:05:06.405Z,16.30
2019-05-02T16:07:38.021Z,16.50
2019-05-02T16:10:04.789Z,16.60
2019-05-02T16:12:35.932Z,16.60
2019-05-02T16:15:02.756Z,16.60
2019-05-02T16:17:30.887Z,16.20
2019-05-02T16:20:09.127Z,16.10
2019-05-02T16:22:29.597Z,16.20
2019-05-02T16:24:57.139Z,16.10
2019-05-02T16:27:44.680Z,16.20
2019-05-02T16:30:13.362Z,16.20
2019-05-02T16:32:44.260Z,16.10
2019-05-02T16:35:17.084Z,16.20
2019-05-02T16:37:42.122Z,16.20
2019-05-02T16:40:11.909Z,16.30
2019-05-02T16:42:41.792Z,16.20
2019-05-02T16:45:08.493Z,16.30
2019-05-02T16:47:36.065Z,16.20
2019-05-02T16:50:05.558Z,16.20
2019-05-02T16:52:33.421Z,16.20
2019-05-02T16:55:02.981Z,16.20
2019-05-02T16:57:32.723Z,16.20
2019-05-02T17:00:05.694Z,16.20
2019-05-02T17:02:29.447Z,16.00
2019-05-02T17:05:00.221Z,16.00
2019-05-02T17:07:28.176Z,15.90
2019-05-02T17:10:02.612Z,15.80
2019-05-02T17:12:29.543Z,15.80
2019-05-02T17:15:15.565Z,15.90
2019-05-02T17:17:43.425Z,15.80
2019-05-02T17:20:12.902Z,15.80
2019-05-02T17:22:41.465Z,15.80
2019-05-02T17:25:09.941Z,15.80
2019-05-02T17:27:37.532Z,15.90
2019-05-02T17:30:12.029Z,15.90
2019-05-02T17:32:41.404Z,15.90
2019-05-02T17:35:10.210Z,15.90
2019-05-02T17:37:40.708Z,15.60
2019-05-02T17:40:07.777Z,15.60
2019-05-02T17:42:35.324Z,15.50
2019-05-02T17:45:04.042Z,15.70
2019-05-02T17:47:36.208Z,15.80
2019-05-02T17:50:06.870Z,15.60
2019-05-02T17:52:37.524Z,15.50
2019-05-02T17:55:05.828Z,15.60
2019-05-02T17:57:34.873Z,15.70
2019-05-02T18:00:02.921Z,15.50
2019-05-02T18:02:31.712Z,15.60
2019-05-02T18:04:59.381Z,15.70
2019-05-02T18:07:32.138Z,15.60
2019-05-02T18:09:56.298Z,15.60
2019-05-02T18:12:23.842Z,15.70
2019-05-02T18:14:58.781Z,15.70
2019-05-02T18:17:21.991Z,15.70
2019-05-02T18:19:49.849Z,15.70
2019-05-02T18:22:25.542Z,15.70
2019-05-02T18:24:47.596Z,15.70
2019-05-02T18:27:15.144Z,15.60
2019-05-02T18:29:45.576Z,15.70
2019-05-02T18:32:12.849Z,15.70
2019-05-02T18:34:41.830Z,15.80
2019-05-02T18:37:09.916Z,15.60
2019-05-02T18:39:42.596Z,15.60
2019-05-02T18:42:06.956Z,15.50
2019-05-02T18:44:34.813Z,15.50
2019-05-02T18:47:02.491Z,15.50
2019-05-02T18:49:32.085Z,15.40
2019-05-02T18:51:59.424Z,15.40
2019-05-02T18:54:26.977Z,15.30
2019-05-02T18:56:55.376Z,15.10
2019-05-02T18:59:26.967Z,15.10
2019-05-02T19:01:56.172Z,15.00
2019-05-02T19:04:23.876Z,15.00
2019-05-02T19:06:51.988Z,15.10
2019-05-02T19:09:24.965Z,15.00
2019-05-02T19:11:48.840Z,15.00
2019-05-02T19:14:21.217Z,14.90
2019-05-02T19:16:45.991Z,14.90
2019-05-02T19:19:13.540Z,14.80
2019-05-02T19:21:41.072Z,14.70
2019-05-02T19:24:08.641Z,14.90
2019-05-02T19:26:36.435Z,14.90
2019-05-02T19:29:17.180Z,14.80
2019-05-02T19:31:46.228Z,14.80
2019-05-02T19:34:16.944Z,14.90
2019-05-02T19:36:43.615Z,14.90
2019-05-02T19:39:11.354Z,15.00
2019-05-02T19:41:43.939Z,14.70
2019-05-02T19:44:08.575Z,14.80
2019-05-02T19:46:38.834Z,14.80
2019-05-02T19:49:06.860Z,14.80
2019-05-02T19:51:34.685Z,14.80
2019-05-02T19:54:05.472Z,14.80
2019-05-02T19:56:33.405Z,14.80
2019-05-02T19:59:02.705Z,14.60
2019-05-02T20:01:30.412Z,14.60
2019-05-02T20:04:02.267Z,14.60
2019-05-02T20:06:27.216Z,14.50
2019-05-02T20:08:59.163Z,14.50
2019-05-02T20:11:28.112Z,14.50
2019-05-02T20:13:53.589Z,14.40
2019-05-02T20:16:23.647Z,14.30
2019-05-02T20:18:52.553Z,14.30
2019-05-02T20:21:28.121Z,14.30
2019-05-02T20:23:55.707Z,14.30
2019-05-02T20:26:23.241Z,14.20
2019-05-02T20:28:52.661Z,14.10
2019-05-02T20:31:21.683Z,14.20
2019-05-02T20:33:49.426Z,14.30
2019-05-02T20:36:16.961Z,14.20
2019-05-02T20:38:44.508Z,14.30
2019-05-02T20:41:12.754Z,14.30
2019-05-02T20:43:44.287Z,14.20
2019-05-02T20:46:09.769Z,14.20
2019-05-02T20:48:37.305Z,14.10
2019-05-02T20:51:04.865Z,14.00
2019-05-02T20:53:34.165Z,14.10
2019-05-02T20:56:01.955Z,14.10
2019-05-02T20:58:29.612Z,14.10
2019-05-02T21:01:07.671Z,14.10
2019-05-02T21:03:26.440Z,14.10
2019-05-02T21:06:12.342Z,14.00
2019-05-02T21:08:52.577Z,14.00
2019-05-02T21:11:20.300Z,14.10
2019-05-02T21:13:48.352Z,14.00
2019-05-02T21:16:16.153Z,14.00
2019-05-02T21:18:43.689Z,14.00
2019-05-02T21:21:12.575Z,14.10
2019-05-02T21:23:46.446Z,14.00
2019-05-02T21:26:09.804Z,14.00
2019-05-02T21:28:37.332Z,13.90
2019-05-02T21:31:05.136Z,13.90
2019-05-02T21:33:33.033Z,13.80
2019-05-02T21:36:00.952Z,13.80
2019-05-02T21:38:28.556Z,13.80
2019-05-02T21:40:56.132Z,13.80
2019-05-02T21:43:23.668Z,13.50
2019-05-02T21:45:51.688Z,13.60
2019-05-02T21:48:19.605Z,13.60
2019-05-02T21:50:58.544Z,13.50
2019-05-02T21:53:32.602Z,13.60
2019-05-02T21:56:02.807Z,13.70
2019-05-02T21:58:32.356Z,13.70
2019-05-02T22:01:02.150Z,13.50
2019-05-02T22:03:29.888Z,13.60
2019-05-02T22:05:57.437Z,13.40
2019-05-02T22:08:24.977Z,13.30
2019-05-02T22:10:52.544Z,13.30
2019-05-02T22:13:22.090Z,13.20
2019-05-02T22:15:49.360Z,13.10
2019-05-02T22:18:16.956Z,13.20
2019-05-02T22:20:44.542Z,13.30
2019-05-02T22:23:12.084Z,13.30
2019-05-02T22:25:39.632Z,13.30
2019-05-02T22:28:07.179Z,13.20
2019-05-02T22:30:34.736Z,13.20
2019-05-02T22:33:02.783Z,13.30
2019-05-02T22:35:30.504Z,13.40
2019-05-02T22:38:05.987Z,13.10
2019-05-02T22:40:33.566Z,13.10
2019-05-02T22:43:01.945Z,13.10
2019-05-02T22:45:32.264Z,13.20
2019-05-02T22:48:19.311Z,13.30
2019-05-02T22:50:46.860Z,13.30
2019-05-02T22:53:14.402Z,13.50
2019-05-02T22:55:42.521Z,13.30
2019-05-02T22:58:10.157Z,13.10
2019-05-02T23:00:37.704Z,13.20
2019-05-02T23:03:05.242Z,13.00
2019-05-02T23:05:34.402Z,13.10
2019-05-02T23:08:02.345Z,13.10
2019-05-02T23:10:30.112Z,13.20
2019-05-02T23:12:57.904Z,13.10
2019-05-02T23:15:25.724Z,13.20
2019-05-02T23:17:53.273Z,13.30
2019-05-02T23:20:21.794Z,13.30
2019-05-02T23:22:50.084Z,13.20
2019-05-02T23:25:51.940Z,13.20
2019-05-02T23:28:22.188Z,13.20
2019-05-02T23:30:51.900Z,13.20
2019-05-02T23:33:19.471Z,13.00
2019-05-02T23:35:47.011Z,12.90
2019-05-02T23:38:14.548Z,13.00
2019-05-02T23:40:42.313Z,13.20
2019-05-02T23:43:09.852Z,13.30
2019-05-02T23:45:37.387Z,13.20
2019-05-02T23:48:04.932Z,13.30
2019-05-02T23:50:32.478Z,13.30
2019-05-02T23:53:02.160Z,13.30
2019-05-02T23:55:29.280Z,13.20
2019-05-02T23:57:56.823Z,13.00
